createdAt,value
2022-12-15T00:00:02.852Z,-0.50
2022-12-15T00:02:50.304Z,-0.50
2022-12-15T00:05:38.309Z,-0.50
2022-12-15T00:08:29.882Z,-0.40
2022-12-15T00:11:15.388Z,-0.50
2022-12-15T00:14:00.931Z,-0.40
2022-12-15T00:16:46.677Z,-0.40
2022-12-15T00:19:32.480Z,-0.50
2022-12-15T00:22:19.658Z,-0.50
2022-12-15T00:25:05.634Z,-0.40
2022-12-15T00:27:51.239Z,-0.50
2022-12-15T00:30:37.081Z,-0.50
2022-12-15T00:33:27.709Z,-0.50
2022-12-15T00:36:13.840Z,-0.50
2022-12-15T00:38:44.116Z,-0.50
2022-12-15T00:41:14.012Z,-0.50
2022-12-15T00:43:41.957Z,-0.50
2022-12-15T00:46:27.963Z,-0.50
2022-12-15T00:48:56.847Z,-0.50
2022-12-15T00:51:42.625Z,-0.60
2022-12-15T00:54:30.968Z,-0.60
2022-12-15T00:57:16.672Z,-0.60
2022-12-15T01:00:02.444Z,-0.60
2022-12-15T01:02:48.278Z,-0.60
2022-12-15T01:05:34.294Z,-0.60
2022-12-15T01:08:19.868Z,-0.60
2022-12-15T01:11:07.034Z,-0.60
2022-12-15T01:13:53.018Z,-0.60
2022-12-15T01:16:38.994Z,-0.60
2022-12-15T01:19:27.452Z,-0.70
2022-12-15T01:21:55.925Z,-0.70
2022-12-15T01:24:25.177Z,-0.70
2022-12-15T01:26:55.995Z,-0.70
2022-12-15T01:29:24.206Z,-0.80
2022-12-15T01:31:52.337Z,-0.80
2022-12-15T01:34:23.408Z,-0.70
2022-12-15T01:36:51.382Z,-0.70
2022-12-15T01:39:19.416Z,-0.70
2022-12-15T01:41:46.521Z,-0.70
2022-12-15T01:44:22.738Z,-0.70
2022-12-15T01:46:52.648Z,-0.80
2022-12-15T01:49:26.848Z,-0.80
2022-12-15T01:51:59.636Z,-0.70
2022-12-15T01:54:32.419Z,-0.70
2022-12-15T01:57:04.852Z,-0.80
2022-12-15T01:59:37.429Z,-0.80
2022-12-15T02:02:05.617Z,-0.90
2022-12-15T02:04:35.439Z,-0.80
2022-12-15T02:07:03.395Z,-0.80
2022-12-15T02:09:31.870Z,-0.80
2022-12-15T02:12:04.023Z,-0.80
2022-12-15T02:14:48.253Z,-0.80
2022-12-15T02:17:29.754Z,-0.80
2022-12-15T02:20:51.419Z,-0.80
2022-12-15T02:23:40.579Z,-0.80
2022-12-15T02:26:43.021Z,-0.80
2022-12-15T02:29:29.493Z,-0.90
2022-12-15T02:32:04.472Z,-0.80
2022-12-15T02:34:39.497Z,-0.90
2022-12-15T02:37:12.455Z,-0.90
2022-12-15T02:39:40.536Z,-0.80
2022-12-15T02:42:09.691Z,-0.80
2022-12-15T02:44:44.457Z,-0.80
2022-12-15T02:47:33.434Z,-0.90
2022-12-15T02:50:35.432Z,-0.90
2022-12-15T02:53:16.416Z,-0.90
2022-12-15T02:55:52.300Z,-0.90
2022-12-15T02:58:31.765Z,-0.90
2022-12-15T03:01:04.706Z,-0.90
2022-12-15T03:03:36.832Z,-0.80
2022-12-15T03:06:06.732Z,-0.90
2022-12-15T03:08:34.788Z,-0.90
2022-12-15T03:11:03.527Z,-0.90
2022-12-15T03:13:31.782Z,-0.90
2022-12-15T03:16:01.556Z,-0.90
2022-12-15T03:18:29.746Z,-0.90
2022-12-15T03:20:59.460Z,-0.80
2022-12-15T03:23:27.726Z,-0.90
2022-12-15T03:25:56.098Z,-0.90
2022-12-15T03:28:24.566Z,-0.90
2022-12-15T03:30:53.213Z,-0.90
2022-12-15T03:33:21.514Z,-0.90
2022-12-15T03:35:50.990Z,-0.90
2022-12-15T03:38:21.030Z,-0.90
2022-12-15T03:40:49.745Z,-1.00
2022-12-15T03:43:17.873Z,-0.90
2022-12-15T03:45:46.202Z,-1.00
2022-12-15T03:48:14.203Z,-1.00
2022-12-15T03:50:42.683Z,-0.90
2022-12-15T03:53:10.791Z,-0.90
2022-12-15T03:55:40.930Z,-0.90
2022-12-15T03:58:09.087Z,-0.90
2022-12-15T04:00:37.741Z,-0.90
2022-12-15T04:03:05.863Z,-0.90
2022-12-15T04:05:35.991Z,-0.90
2022-12-15T04:08:05.025Z,-0.90
2022-12-15T04:10:35.212Z,-1.00
2022-12-15T04:13:07.220Z,-1.00
2022-12-15T04:15:37.463Z,-0.90
2022-12-15T04:18:14.005Z,-0.90
2022-12-15T04:20:42.798Z,-0.90
2022-12-15T04:23:12.312Z,-0.90
2022-12-15T04:25:59.039Z,-0.90
2022-12-15T04:28:46.368Z,-0.90
2022-12-15T04:31:35.076Z,-0.90
2022-12-15T04:34:22.829Z,-0.90
2022-12-15T04:37:11.863Z,-1.00
2022-12-15T04:39:59.961Z,-0.90
2022-12-15T04:42:46.497Z,-1.00
2022-12-15T04:45:35.567Z,-1.00
2022-12-15T04:48:21.296Z,-1.00
2022-12-15T04:51:06.923Z,-1.00
2022-12-15T04:53:52.610Z,-1.00
2022-12-15T04:56:38.108Z,-1.00
2022-12-15T04:59:24.014Z,-0.90
2022-12-15T05:02:11.356Z,-1.00
2022-12-15T05:04:57.536Z,-1.00
2022-12-15T05:07:43.927Z,-1.00
2022-12-15T05:10:29.651Z,-0.90
2022-12-15T05:13:23.060Z,-1.00
2022-12-15T05:16:08.940Z,-1.00
2022-12-15T05:18:56.020Z,-1.10
2022-12-15T05:21:42.284Z,-1.00
2022-12-15T05:24:28.116Z,-1.00
2022-12-15T05:27:14.683Z,-1.00
2022-12-15T05:30:01.024Z,-1.10
2022-12-15T05:32:30.035Z,-1.00
2022-12-15T05:34:59.408Z,-1.00
2022-12-15T05:37:27.837Z,-1.00
2022-12-15T05:39:56.187Z,-1.00
2022-12-15T05:42:24.204Z,-0.90
2022-12-15T05:44:52.313Z,-1.00
2022-12-15T05:47:20.332Z,-0.90
2022-12-15T05:49:49.247Z,-1.00
2022-12-15T05:52:18.786Z,-1.00
2022-12-15T05:54:46.925Z,-1.00
2022-12-15T05:57:15.313Z,-1.00
2022-12-15T05:59:43.335Z,-1.00
2022-12-15T06:02:11.464Z,-1.00
2022-12-15T06:04:40.316Z,-1.00
2022-12-15T06:07:08.435Z,-1.00
2022-12-15T06:09:38.221Z,-1.00
2022-12-15T06:12:07.133Z,-1.00
2022-12-15T06:14:36.274Z,-1.00
2022-12-15T06:17:04.384Z,-1.00
2022-12-15T06:19:32.387Z,-1.00
2022-12-15T06:22:01.026Z,-1.00
2022-12-15T06:24:30.368Z,-1.00
2022-12-15T06:27:00.715Z,-1.00
2022-12-15T06:29:29.317Z,-1.00
2022-12-15T06:31:57.625Z,-1.00
2022-12-15T06:34:25.779Z,-1.00
2022-12-15T06:36:54.355Z,-0.90
2022-12-15T06:39:22.626Z,-1.00
2022-12-15T06:41:50.600Z,-0.90
2022-12-15T06:44:21.509Z,-1.00
2022-12-15T06:46:50.103Z,-1.00
2022-12-15T06:49:18.216Z,-1.00
2022-12-15T06:51:46.315Z,-1.00
2022-12-15T06:54:14.519Z,-1.00
2022-12-15T06:56:42.637Z,-1.00
2022-12-15T06:59:12.384Z,-1.00
2022-12-15T07:01:43.544Z,-1.10
2022-12-15T07:04:12.397Z,-1.10
2022-12-15T07:06:40.988Z,-1.20
2022-12-15T07:09:15.897Z,-1.10
2022-12-15T07:11:44.159Z,-1.00
2022-12-15T07:14:12.708Z,-1.10
2022-12-15T07:16:42.143Z,-1.00
2022-12-15T07:19:13.542Z,-1.00
2022-12-15T07:21:42.400Z,-1.00
2022-12-15T07:24:12.585Z,-1.00
2022-12-15T07:26:41.320Z,-1.00
2022-12-15T07:29:09.303Z,-1.00
2022-12-15T07:31:37.460Z,-0.90
2022-12-15T07:34:07.190Z,-0.90
2022-12-15T07:36:35.811Z,-0.90
2022-12-15T07:39:06.776Z,-0.90
2022-12-15T07:41:35.399Z,-0.90
2022-12-15T07:44:04.008Z,-0.90
2022-12-15T07:46:32.400Z,-0.80
2022-12-15T07:49:00.473Z,-0.80
2022-12-15T07:51:29.880Z,-0.80
2022-12-15T07:53:57.904Z,-0.70
2022-12-15T07:56:26.005Z,-0.70
2022-12-15T07:58:54.169Z,-0.70
2022-12-15T08:01:22.416Z,-0.70
2022-12-15T08:03:50.774Z,-0.70
2022-12-15T08:06:19.027Z,-0.60
2022-12-15T08:09:12.799Z,-0.70
2022-12-15T08:11:40.759Z,-0.60
2022-12-15T08:14:13.488Z,-0.60
2022-12-15T08:16:45.866Z,-0.60
2022-12-15T08:19:16.843Z,-0.60
2022-12-15T08:21:46.819Z,-0.50
2022-12-15T08:24:17.370Z,-0.50
2022-12-15T08:26:50.087Z,-0.40
2022-12-15T08:32:09.099Z,-0.40
2022-12-15T08:34:37.466Z,-0.40
2022-12-15T08:37:05.461Z,-0.40
2022-12-15T08:39:35.773Z,-0.30
2022-12-15T08:42:03.748Z,-0.30
2022-12-15T08:44:32.880Z,-0.20
2022-12-15T08:47:00.880Z,-0.20
2022-12-15T08:49:29.634Z,-0.20
2022-12-15T08:51:58.521Z,-0.10
2022-12-15T08:54:26.483Z,0.00
2022-12-15T08:56:56.540Z,0.00
2022-12-15T08:59:25.199Z,0.00
2022-12-15T09:01:54.410Z,0.10
2022-12-15T09:04:23.117Z,0.20
2022-12-15T09:06:51.318Z,0.20
2022-12-15T09:09:20.380Z,0.10
2022-12-15T09:11:52.325Z,0.20
2022-12-15T09:14:28.813Z,0.30
2022-12-15T09:16:57.730Z,0.20
2022-12-15T09:19:28.620Z,0.30
2022-12-15T09:21:57.071Z,0.30
2022-12-15T09:24:34.299Z,0.40
2022-12-15T09:27:03.945Z,0.50
2022-12-15T09:29:34.088Z,0.60
2022-12-15T09:32:04.061Z,0.60
2022-12-15T09:34:35.551Z,0.60
2022-12-15T09:37:04.491Z,0.60
2022-12-15T09:39:32.555Z,0.50
2022-12-15T09:42:02.597Z,0.50
2022-12-15T09:44:34.343Z,0.50
2022-12-15T09:47:09.904Z,0.40
2022-12-15T09:49:52.376Z,0.50
2022-12-15T09:52:25.513Z,0.40
2022-12-15T09:54:53.845Z,0.40
2022-12-15T09:57:31.764Z,0.60
2022-12-15T10:00:12.427Z,0.70
2022-12-15T10:03:03.078Z,0.70
2022-12-15T10:08:32.019Z,0.60
2022-12-15T10:11:02.786Z,0.60
2022-12-15T10:13:40.764Z,0.50
2022-12-15T10:16:19.668Z,0.50
2022-12-15T10:19:01.881Z,0.50
2022-12-15T10:21:32.723Z,0.50
2022-12-15T10:24:13.417Z,0.50
2022-12-15T10:26:43.757Z,0.50
2022-12-15T10:29:27.651Z,0.60
2022-12-15T10:32:01.586Z,0.60
2022-12-15T10:34:34.828Z,0.70
2022-12-15T10:37:03.205Z,0.60
2022-12-15T10:39:39.730Z,0.70
2022-12-15T10:42:17.932Z,0.60
2022-12-15T10:44:50.582Z,0.60
2022-12-15T10:47:23.384Z,0.70
2022-12-15T10:49:51.943Z,0.80
2022-12-15T10:52:27.859Z,0.90
2022-12-15T10:54:56.855Z,1.00
2022-12-15T10:57:28.813Z,0.90
2022-12-15T11:00:19.681Z,0.90
2022-12-15T11:02:49.714Z,0.80
2022-12-15T11:05:19.779Z,0.90
2022-12-15T11:07:49.994Z,0.90
2022-12-15T11:10:22.127Z,1.00
2022-12-15T11:13:00.030Z,0.90
2022-12-15T11:15:52.986Z,1.00
2022-12-15T11:18:36.466Z,0.90
2022-12-15T11:21:10.529Z,0.90
2022-12-15T11:23:51.149Z,0.90
2022-12-15T11:26:31.315Z,1.00
2022-12-15T11:29:04.546Z,0.90
2022-12-15T11:31:37.885Z,0.90
2022-12-15T11:34:14.367Z,0.90
2022-12-15T11:36:58.431Z,0.90
2022-12-15T11:39:45.785Z,1.00
2022-12-15T11:42:26.067Z,1.00
2022-12-15T11:45:03.948Z,0.90
2022-12-15T11:47:40.807Z,0.90
2022-12-15T11:50:20.973Z,0.90
2022-12-15T11:53:08.334Z,1.10
2022-12-15T11:55:44.238Z,1.10
2022-12-15T11:58:45.133Z,1.10
2022-12-15T12:01:25.670Z,1.20
2022-12-15T12:04:02.177Z,1.10
2022-12-15T12:06:39.366Z,1.20
2022-12-15T12:09:32.955Z,1.10
2022-12-15T12:12:14.108Z,1.20
2022-12-15T12:14:52.278Z,1.30
2022-12-15T12:17:36.390Z,1.30
2022-12-15T12:20:14.771Z,1.30
2022-12-15T12:22:54.659Z,1.20
2022-12-15T12:25:26.224Z,1.20
2022-12-15T12:27:57.139Z,1.30
2022-12-15T12:30:28.590Z,1.30
2022-12-15T12:33:04.604Z,1.20
2022-12-15T12:38:36.223Z,1.30
2022-12-15T12:41:09.534Z,1.20
2022-12-15T12:43:41.381Z,1.20
2022-12-15T12:46:14.491Z,1.20
2022-12-15T12:48:48.411Z,1.20
2022-12-15T12:51:29.548Z,1.20
2022-12-15T12:54:00.213Z,1.20
2022-12-15T12:56:40.970Z,1.00
2022-12-15T12:59:37.323Z,1.00
2022-12-15T13:02:46.341Z,1.10
2022-12-15T13:05:33.026Z,1.10
2022-12-15T13:14:51.952Z,1.00
2022-12-15T13:17:32.369Z,1.00
2022-12-15T13:20:23.993Z,1.10
2022-12-15T13:22:52.456Z,1.10
2022-12-15T13:25:40.288Z,1.00
2022-12-15T13:28:28.588Z,1.10
2022-12-15T13:31:22.929Z,1.00
2022-12-15T13:33:57.207Z,1.10
2022-12-15T13:36:54.433Z,1.10
2022-12-15T13:39:52.350Z,1.10
2022-12-15T13:42:53.193Z,1.00
2022-12-15T13:45:48.691Z,0.90
2022-12-15T13:48:39.828Z,0.90
2022-12-15T13:51:39.835Z,1.00
2022-12-15T13:54:17.335Z,1.00
2022-12-15T13:56:56.743Z,0.90
2022-12-15T13:59:35.194Z,0.90
2022-12-15T14:02:04.764Z,0.90
2022-12-15T14:04:32.791Z,0.80
2022-12-15T14:07:03.183Z,0.80
2022-12-15T14:09:33.850Z,0.70
2022-12-15T14:12:03.516Z,0.70
2022-12-15T14:14:35.065Z,0.70
2022-12-15T14:17:10.044Z,0.80
2022-12-15T14:19:40.289Z,0.70
2022-12-15T14:22:27.680Z,0.60
2022-12-15T14:25:14.554Z,0.60
2022-12-15T14:27:42.682Z,0.60
2022-12-15T14:30:22.528Z,0.60
2022-12-15T14:32:57.602Z,0.60
2022-12-15T14:35:31.042Z,0.60
2022-12-15T14:38:02.677Z,0.60
2022-12-15T14:40:31.827Z,0.50
2022-12-15T14:43:00.585Z,0.60
2022-12-15T14:45:32.129Z,0.60
2022-12-15T14:48:39.512Z,0.50
2022-12-15T14:51:00.029Z,0.50
2022-12-15T14:53:34.006Z,0.50
2022-12-15T14:56:29.693Z,0.50
2022-12-15T14:59:03.944Z,0.40
2022-12-15T15:01:40.024Z,0.40
2022-12-15T15:03:06.222Z,0.60
2022-12-15T15:03:09.281Z,1.10
2022-12-15T15:03:10.572Z,1.10
2022-12-15T15:04:25.622Z,0.40
2022-12-15T15:06:57.283Z,0.40
2022-12-15T15:09:28.591Z,0.40
2022-12-15T15:12:01.575Z,0.40
2022-12-15T15:14:33.573Z,0.40
2022-12-15T15:17:06.336Z,0.30
2022-12-15T15:19:39.725Z,0.40
2022-12-15T15:22:25.413Z,0.40
2022-12-15T15:24:53.632Z,0.30
2022-12-15T15:27:28.321Z,0.40
2022-12-15T15:30:19.934Z,0.30
2022-12-15T15:32:56.731Z,0.20
2022-12-15T15:35:31.899Z,0.30
2022-12-15T15:38:06.324Z,0.30
2022-12-15T15:40:35.571Z,0.30
2022-12-15T15:43:08.916Z,0.30
2022-12-15T15:45:37.179Z,0.30
2022-12-15T15:48:06.588Z,0.30
2022-12-15T15:50:37.851Z,0.20
2022-12-15T15:53:05.926Z,0.30
2022-12-15T15:55:39.660Z,0.30
2022-12-15T15:58:12.309Z,0.30
2022-12-15T16:00:41.685Z,0.30
2022-12-15T16:03:09.937Z,0.20
2022-12-15T16:05:39.541Z,0.30
2022-12-15T16:08:10.843Z,0.30
2022-12-15T16:10:38.868Z,0.30
2022-12-15T16:13:06.906Z,0.30
2022-12-15T16:15:35.173Z,0.30
2022-12-15T16:18:03.210Z,0.20
2022-12-15T16:20:31.556Z,0.30
2022-12-15T16:23:03.045Z,0.20
2022-12-15T16:25:42.538Z,0.20
2022-12-15T16:28:17.331Z,0.30
2022-12-15T16:30:46.053Z,0.30
2022-12-15T16:33:14.297Z,0.40
2022-12-15T16:35:43.674Z,0.30
2022-12-15T16:38:17.877Z,0.30
2022-12-15T16:40:46.520Z,0.30
2022-12-15T16:43:18.225Z,0.40
2022-12-15T16:45:49.189Z,0.40
2022-12-15T16:48:18.170Z,0.40
2022-12-15T16:50:55.265Z,0.40
2022-12-15T16:53:26.790Z,0.40
2022-12-15T16:55:56.407Z,0.40
2022-12-15T16:58:26.426Z,0.40
2022-12-15T17:00:54.773Z,0.40
2022-12-15T17:03:25.984Z,0.40
2022-12-15T17:05:56.544Z,0.40
2022-12-15T17:08:30.187Z,0.50
2022-12-15T17:10:58.527Z,0.50
2022-12-15T17:13:37.858Z,0.40
2022-12-15T17:16:14.936Z,0.40
2022-12-15T17:18:44.531Z,0.40
2022-12-15T17:21:18.634Z,0.40
2022-12-15T17:23:51.099Z,0.30
2022-12-15T17:26:29.130Z,0.40
2022-12-15T17:29:00.249Z,0.50
2022-12-15T17:31:34.858Z,0.40
2022-12-15T17:34:22.714Z,0.30
2022-12-15T17:36:51.159Z,0.30
2022-12-15T17:39:22.361Z,0.40
2022-12-15T17:42:05.937Z,0.30
2022-12-15T17:44:38.204Z,0.30
2022-12-15T17:47:08.660Z,0.30
2022-12-15T17:49:38.626Z,0.40
2022-12-15T17:52:14.440Z,0.50
2022-12-15T17:54:43.893Z,0.40
2022-12-15T17:57:13.318Z,0.50
2022-12-15T17:59:41.562Z,0.50
2022-12-15T18:02:12.619Z,0.50
2022-12-15T18:04:41.289Z,0.50
2022-12-15T18:07:17.875Z,0.50
2022-12-15T18:09:48.261Z,0.40
2022-12-15T18:12:21.649Z,0.50
2022-12-15T18:14:49.864Z,0.40
2022-12-15T18:17:18.086Z,0.50
2022-12-15T18:19:46.461Z,0.50
2022-12-15T18:22:18.117Z,0.50
2022-12-15T18:24:47.814Z,0.50
2022-12-15T18:27:26.563Z,0.50
2022-12-15T18:29:55.229Z,0.50
2022-12-15T18:32:26.343Z,0.50
2022-12-15T18:34:54.675Z,0.60
2022-12-15T18:37:24.852Z,0.50
2022-12-15T18:39:57.128Z,0.50
2022-12-15T18:42:29.050Z,0.50
2022-12-15T18:44:58.736Z,0.50
2022-12-15T18:47:27.665Z,0.40
2022-12-15T18:49:56.144Z,0.50
2022-12-15T18:52:31.457Z,0.50
2022-12-15T18:55:03.595Z,0.50
2022-12-15T18:57:34.229Z,0.50
2022-12-15T19:00:07.896Z,0.40
2022-12-15T19:02:36.389Z,0.50
2022-12-15T19:05:05.341Z,0.40
2022-12-15T19:07:33.396Z,0.50
2022-12-15T19:10:03.167Z,0.50
2022-12-15T19:12:31.163Z,0.40
2022-12-15T19:14:59.833Z,0.50
2022-12-15T19:17:45.545Z,0.40
2022-12-15T19:20:35.803Z,0.50
2022-12-15T19:23:04.145Z,0.50
2022-12-15T19:25:34.974Z,0.50
2022-12-15T19:28:03.442Z,0.50
2022-12-15T19:30:38.481Z,0.50
2022-12-15T19:33:08.672Z,0.60
2022-12-15T19:35:37.465Z,0.60
2022-12-15T19:38:06.208Z,0.60
2022-12-15T19:40:37.783Z,0.60
2022-12-15T19:43:06.349Z,0.60
2022-12-15T19:45:34.719Z,0.60
2022-12-15T19:48:02.813Z,0.60
2022-12-15T19:50:36.342Z,0.70
2022-12-15T19:53:08.242Z,0.60
2022-12-15T19:55:38.214Z,0.70
2022-12-15T19:58:27.359Z,0.70
2022-12-15T20:00:58.618Z,0.70
2022-12-15T20:03:27.783Z,0.70
2022-12-15T20:05:58.312Z,0.70
2022-12-15T20:08:29.171Z,0.70
2022-12-15T20:10:58.575Z,0.70
2022-12-15T20:13:27.490Z,0.70
2022-12-15T20:15:56.056Z,0.70
2022-12-15T20:21:11.937Z,0.70
2022-12-15T20:23:48.791Z,0.70
2022-12-15T20:26:19.803Z,0.70
2022-12-15T20:28:48.129Z,0.70
2022-12-15T20:31:18.516Z,0.70
2022-12-15T20:33:48.638Z,0.70
2022-12-15T20:36:19.543Z,0.70
2022-12-15T20:38:48.367Z,0.70
2022-12-15T20:41:20.636Z,0.70
2022-12-15T20:43:48.899Z,0.70
2022-12-15T20:46:20.782Z,0.80
2022-12-15T20:48:50.198Z,0.80
2022-12-15T20:51:22.935Z,0.80
2022-12-15T20:53:51.662Z,0.90
2022-12-15T20:56:23.086Z,0.90
2022-12-15T20:58:51.414Z,0.80
2022-12-15T21:01:21.976Z,0.80
2022-12-15T21:03:51.976Z,0.80
2022-12-15T21:06:20.436Z,0.80
2022-12-15T21:08:49.357Z,0.90
2022-12-15T21:11:19.400Z,0.90
2022-12-15T21:13:50.661Z,0.80
2022-12-15T21:16:20.496Z,0.90
2022-12-15T21:19:19.719Z,0.90
2022-12-15T21:21:39.058Z,0.90
2022-12-15T21:24:15.799Z,0.90
2022-12-15T21:26:44.513Z,0.90
2022-12-15T21:29:17.200Z,0.90
2022-12-15T21:31:45.366Z,0.90
2022-12-15T21:34:13.885Z,0.90
2022-12-15T21:36:44.740Z,0.90
2022-12-15T21:39:16.751Z,0.90
2022-12-15T21:41:44.873Z,0.90
2022-12-15T21:44:16.285Z,0.90
2022-12-15T21:46:44.722Z,0.90
2022-12-15T21:49:14.617Z,0.90
2022-12-15T21:51:44.848Z,1.00
2022-12-15T21:54:19.038Z,0.90
2022-12-15T21:56:47.740Z,0.90
2022-12-15T21:59:18.936Z,1.00
2022-12-15T22:01:47.490Z,0.90
2022-12-15T22:04:19.278Z,1.00
2022-12-15T22:06:50.557Z,1.00
2022-12-15T22:09:18.995Z,1.00
2022-12-15T22:11:50.159Z,1.00
2022-12-15T22:14:25.789Z,1.00
2022-12-15T22:16:55.215Z,1.00
2022-12-15T22:19:23.887Z,1.00
2022-12-15T22:21:53.251Z,0.90
2022-12-15T22:24:21.937Z,1.00
2022-12-15T22:26:50.384Z,1.00
2022-12-15T22:29:22.868Z,1.00
2022-12-15T22:31:52.117Z,1.00
2022-12-15T22:34:22.229Z,1.00
2022-12-15T22:37:05.175Z,1.00
2022-12-15T22:39:33.845Z,0.90
2022-12-15T22:42:02.960Z,1.00
2022-12-15T22:44:34.513Z,1.00
2022-12-15T22:47:03.767Z,1.00
2022-12-15T22:49:35.454Z,1.00
2022-12-15T22:52:04.249Z,1.00
2022-12-15T22:54:32.963Z,1.00
2022-12-15T22:57:04.031Z,1.00
2022-12-15T22:59:37.051Z,1.00
2022-12-15T23:02:05.823Z,1.00
2022-12-15T23:04:34.319Z,1.00
2022-12-15T23:07:04.763Z,1.00
2022-12-15T23:09:33.322Z,1.10
2022-12-15T23:12:00.349Z,1.10
2022-12-15T23:14:42.579Z,1.10
2022-12-15T23:17:12.751Z,1.10
2022-12-15T23:19:44.692Z,1.10
2022-12-15T23:22:12.799Z,1.10
2022-12-15T23:24:40.829Z,1.10
2022-12-15T23:27:11.547Z,1.10
2022-12-15T23:29:39.820Z,1.10
2022-12-15T23:32:07.802Z,1.10
2022-12-15T23:34:37.533Z,1.10
2022-12-15T23:37:05.577Z,1.10
2022-12-15T23:39:33.593Z,1.10
2022-12-15T23:42:01.587Z,1.10
2022-12-15T23:44:30.189Z,1.20
2022-12-15T23:46:58.460Z,1.20
2022-12-15T23:49:27.730Z,1.10
2022-12-15T23:51:57.160Z,1.20
2022-12-15T23:54:25.494Z,1.20
2022-12-15T23:56:53.897Z,1.20
2022-12-15T23:59:22.858Z,1.10
